Time;durP1;ratioP1;P1;durP2;ratioP2;P2;SDS_P1;SDS_P2;PMS_P1;PMS_P2;Temp;Humidity;BMP_temperature;BMP_pressure;BME280_temperature;BME280_humidity;BME280_pressure;Samples;Min_cycle;Max_cycle;Signal;HPM_P1;HPM_P2
2024/01/17 00:01:35;;;;;;;18.90;11.20;;;;;;;-1.77;87.29;99983.78;105960;1293;60317;-63
2024/01/17 00:04:21;;;;;;;19.40;10.80;;;;;;;-1.74;87.61;99984.52;106011;1290;59512;-63
2024/01/17 00:07:07;;;;;;;22.50;12.00;;;;;;;-1.69;87.19;99989.53;105973;1292;74276;-62
2024/01/17 00:09:53;;;;;;;24.50;11.00;;;;;;;-1.70;87.35;99981.41;105987;1290;68330;-62
2024/01/17 00:12:39;;;;;;;22.90;11.50;;;;;;;-1.66;87.77;99978.96;106041;1291;72332;-63
2024/01/17 00:15:25;;;;;;;18.40;11.40;;;;;;;-1.65;88.04;99975.93;105987;1291;59306;-63
2024/01/17 00:18:11;;;;;;;22.80;12.10;;;;;;;-1.64;87.51;99973.45;105993;1291;60692;-63
2024/01/17 00:20:57;;;;;;;24.50;12.80;;;;;;;-1.62;87.56;99969.41;105946;1289;73139;-62
2024/01/17 00:23:43;;;;;;;21.80;12.10;;;;;;;-1.63;88.02;99965.52;106024;1291;67219;-62
2024/01/17 00:26:29;;;;;;;28.30;12.50;;;;;;;-1.61;87.56;99968.77;105949;1291;71798;-63
2024/01/17 00:29:18;;;;;;;25.70;13.50;;;;;;;-1.62;87.86;99974.33;105882;1291;59052;-62
2024/01/17 00:32:04;;;;;;;25.60;14.00;;;;;;;-1.61;87.66;99975.36;106025;1291;60089;-62
2024/01/17 00:34:51;;;;;;;31.60;14.40;;;;;;;-1.60;87.70;99973.19;105995;1290;74155;-62
2024/01/17 00:37:37;;;;;;;26.10;13.90;;;;;;;-1.61;87.51;99970.80;105956;1291;67406;-63
2024/01/17 00:40:24;;;;;;;16.30;10.50;;;;;;;-1.63;87.90;99969.73;105972;1290;71219;-62
2024/01/17 00:43:10;;;;;;;24.70;10.70;;;;;;;-1.66;88.01;99964.26;106012;1293;59210;-62
2024/01/17 00:45:57;;;;;;;18.50;11.60;;;;;;;-1.64;88.20;99966.17;105992;1290;59015;-62
2024/01/17 00:48:43;;;;;;;22.30;10.80;;;;;;;-1.67;88.67;99966.27;105995;1295;74557;-62
2024/01/17 00:51:29;;;;;;;;;;;;;;;-1.69;88.33;99970.30;105939;1290;67309;-63
2024/01/17 00:54:15;;;;;;;19.30;10.90;;;;;;;-1.72;88.91;99970.89;105987;1291;71182;-62
2024/01/17 00:57:01;;;;;;;23.30;11.30;;;;;;;-1.74;88.55;99971.34;106026;1290;59258;-63
2024/01/17 00:59:47;;;;;;;21.00;10.60;;;;;;;-1.75;88.48;99968.79;105997;1290;59251;-63
2024/01/17 01:02:33;;;;;;;22.00;10.80;;;;;;;-1.76;88.39;99970.30;105964;1294;72800;-62
2024/01/17 01:05:19;;;;;;;19.80;11.70;;;;;;;-1.78;88.00;99969.55;106019;1290;67151;-62
2024/01/17 01:08:05;;;;;;;19.90;11.70;;;;;;;-1.80;87.99;99968.69;106028;1289;71812;-62
2024/01/17 01:10:51;;;;;;;29.00;12.50;;;;;;;-1.80;88.04;99966.98;105834;1291;59070;-62
2024/01/17 01:13:37;;;;;;;25.50;11.60;;;;;;;-1.82;88.27;99965.23;105859;1292;59980;-62
2024/01/17 01:16:23;;;;;;;32.10;12.30;;;;;;;-1.84;88.57;99961.82;105973;1294;75481;-62
2024/01/17 01:19:10;;;;;;;;;;;;;;;-1.84;88.47;99959.46;106014;1290;67433;-63
2024/01/17 01:21:56;;;;;;;20.20;11.40;;;;;;;-1.80;88.97;99960.23;105941;1290;72191;-62
2024/01/17 01:24:42;;;;;;;25.10;13.40;;;;;;;-1.79;88.39;99954.00;105934;1291;59462;-62
2024/01/17 01:27:27;;;;;;;20.60;11.60;;;;;;;-1.78;88.93;99953.35;105689;1292;364974;-63
2024/01/17 01:30:14;;;;;;;24.80;12.10;;;;;;;-1.77;88.63;99945.59;105938;1291;73954;-62
2024/01/17 01:33:00;;;;;;;29.90;12.20;;;;;;;-1.78;88.38;99947.11;105976;1293;68178;-63
2024/01/17 01:35:46;;;;;;;23.70;12.50;;;;;;;-1.78;88.40;99944.04;105976;1291;72063;-62
2024/01/17 01:38:32;;;;;;;22.20;11.20;;;;;;;-1.78;88.18;99941.69;105868;1294;58973;-62
2024/01/17 01:41:18;;;;;;;;;;;;;;;-1.77;88.11;99939.02;106003;1291;61231;-63
2024/01/17 01:44:05;;;;;;;21.50;11.50;;;;;;;-1.79;88.90;99935.75;105987;1291;74667;-63
2024/01/17 01:46:52;;;;;;;26.40;12.00;;;;;;;-1.86;89.24;99935.74;105982;1291;67470;-62
2024/01/17 01:49:39;;;;;;;22.00;12.00;;;;;;;-1.91;88.66;99934.13;105614;1291;174401;-63
2024/01/17 01:52:26;;;;;;;25.80;12.10;;;;;;;-1.97;88.91;99935.34;105965;1291;58964;-62
2024/01/17 01:55:13;;;;;;;21.10;12.50;;;;;;;-2.06;88.94;99933.61;105720;1290;278123;-62
2024/01/17 01:57:59;;;;;;;22.40;11.90;;;;;;;-2.14;88.72;99932.95;105853;1290;73358;-62
2024/01/17 02:00:46;;;;;;;;;;;;;;;-2.22;88.46;99929.20;105978;1290;67377;-62
2024/01/17 02:03:33;;;;;;;21.50;12.20;;;;;;;-2.25;88.21;99923.04;105955;1290;72685;-62
2024/01/17 02:06:20;;;;;;;24.80;12.20;;;;;;;-2.35;88.95;99922.98;105963;1291;59241;-62
2024/01/17 02:09:07;;;;;;;26.60;12.70;;;;;;;-2.45;89.49;99921.70;105944;1292;60566;-63
2024/01/17 02:11:53;;;;;;;23.20;11.80;;;;;;;-2.53;88.58;99925.54;105960;1291;74174;-62
2024/01/17 02:14:40;;;;;;;;;;;;;;;-2.58;88.25;99924.91;105967;1290;68141;-63
2024/01/17 02:17:26;;;;;;;22.10;11.90;;;;;;;-2.66;88.33;99925.08;105870;1291;73145;-62
2024/01/17 02:20:13;;;;;;;23.60;11.30;;;;;;;-2.74;88.93;99927.73;105925;1292;59463;-62
2024/01/17 02:22:59;;;;;;;23.60;11.30;;;;;;;-2.81;89.39;99924.02;54514;1290;10002492;-63
2024/01/17 02:26:05;;;;;;;29.50;13.20;;;;;;;-2.91;88.91;99922.39;98577;1289;10062111;-63
2024/01/17 02:28:51;;;;;;;27.40;12.50;;;;;;;-2.94;88.76;99930.06;105965;1290;69618;-62
2024/01/17 02:31:38;;;;;;;22.90;11.60;;;;;;;-3.02;89.15;99930.19;105959;1290;73337;-63
2024/01/17 02:34:24;;;;;;;21.70;12.10;;;;;;;-3.10;89.03;99922.21;105968;1290;59006;-62
2024/01/17 02:37:14;;;;;;;28.00;14.30;;;;;;;-3.18;89.43;99922.52;105976;1290;58910;-62
2024/01/17 02:40:00;;;;;;;22.90;12.30;;;;;;;-3.23;89.59;99924.56;105851;1293;74202;-63
2024/01/17 02:42:47;;;;;;;26.90;13.20;;;;;;;-3.29;89.13;99922.36;105818;1292;68169;-63
2024/01/17 02:45:33;;;;;;;24.50;12.60;;;;;;;-3.32;89.14;99926.66;105909;1290;72520;-63
2024/01/17 02:48:19;;;;;;;25.10;11.80;;;;;;;-3.36;89.06;99925.21;105774;1294;58783;-63
2024/01/17 02:51:05;;;;;;;;;;;;;;;-3.40;89.25;99925.43;105768;1293;58821;-62
2024/01/17 02:53:51;;;;;;;23.60;11.40;;;;;;;-3.46;90.65;99925.42;105752;1292;73338;-62
2024/01/17 02:56:37;;;;;;;;;;;;;;;-3.53;90.64;99927.23;105879;1292;68428;-62
2024/01/17 02:59:23;;;;;;;26.10;13.10;;;;;;;-3.55;90.76;99921.98;105856;1294;71148;-63
2024/01/17 03:02:09;;;;;;;35.30;14.00;;;;;;;-3.59;90.54;99919.48;105857;1293;59226;-62
2024/01/17 03:04:55;;;;;;;22.10;12.80;;;;;;;-3.62;89.28;99922.09;105859;1293;59133;-62
2024/01/17 03:07:42;;;;;;;25.20;13.10;;;;;;;-3.69;89.34;99919.89;105764;1290;74548;-62
2024/01/17 03:10:27;;;;;;;;;;;;;;;-3.75;89.59;99916.02;105806;1291;67639;-62
2024/01/17 03:13:14;;;;;;;29.10;12.00;;;;;;;-3.80;89.74;99911.65;105777;1290;71682;-62
2024/01/17 03:16:00;;;;;;;26.60;12.50;;;;;;;-3.86;89.04;99908.44;105778;1292;59429;-63
2024/01/17 03:18:46;;;;;;;27.50;12.50;;;;;;;-3.94;89.05;99904.30;105864;1290;60361;-62
2024/01/17 03:21:32;;;;;;;23.00;12.30;;;;;;;-4.04;88.95;99901.15;105900;1293;74428;-63
2024/01/17 03:24:18;;;;;;;26.80;12.30;;;;;;;-4.12;89.66;99901.90;105915;1290;68626;-63
2024/01/17 03:27:03;;;;;;;;;;;;;;;-4.19;90.40;99898.16;105764;1293;71006;-62
2024/01/17 03:29:49;;;;;;;26.70;11.50;;;;;;;-4.24;89.98;99896.35;105867;1290;59184;-62
2024/01/17 03:32:36;;;;;;;24.90;12.40;;;;;;;-4.30;88.99;99891.42;105870;1290;59302;-62
2024/01/17 03:35:21;;;;;;;;;;;;;;;-4.37;88.69;99889.85;105908;1291;73918;-63
2024/01/17 03:38:07;;;;;;;21.20;10.50;;;;;;;-4.40;88.60;99884.73;105898;1291;66620;-63
2024/01/17 03:40:56;;;;;;;;;;;;;;;-4.43;88.30;99881.28;105972;1290;71110;-63
2024/01/17 03:43:43;;;;;;;19.40;10.60;;;;;;;-4.46;88.04;99872.76;105979;1290;59088;-63
2024/01/17 03:46:29;;;;;;;22.80;12.00;;;;;;;-4.54;87.61;99878.70;105953;1291;59469;-63
2024/01/17 03:49:39;;;;;;;22.80;12.00;;;;;;;-4.72;87.56;99872.27;49839;1294;10292651;-63
2024/01/17 03:52:25;;;;;;;20.90;12.00;;;;;;;-4.78;88.15;99865.34;105833;1290;61005;-62
2024/01/17 03:55:11;;;;;;;20.50;11.50;;;;;;;-4.81;88.61;99862.40;105943;1291;74249;-62
2024/01/17 03:57:57;;;;;;;25.00;11.90;;;;;;;-4.85;89.59;99861.27;105946;1290;67987;-63
2024/01/17 04:00:43;;;;;;;;;;;;;;;-4.90;88.91;99852.01;105973;1290;71326;-62
2024/01/17 04:03:29;;;;;;;22.00;11.70;;;;;;;-4.92;89.12;99846.39;105973;1290;59674;-62
2024/01/17 04:06:15;;;;;;;19.30;11.80;;;;;;;-4.93;89.21;99846.52;105972;1293;59159;-62
2024/01/17 04:09:01;;;;;;;;;;;;;;;-4.95;89.23;99840.73;105984;1291;73230;-63
2024/01/17 04:11:47;;;;;;;21.30;11.10;;;;;;;-4.96;89.56;99837.84;104984;1291;67229;-61
2024/01/17 04:14:33;;;;;;;26.00;13.10;;;;;;;-4.96;90.04;99835.84;104680;1294;71322;-61
2024/01/17 04:17:20;;;;;;;27.70;12.40;;;;;;;-4.96;89.52;99836.49;104694;1291;61409;-60
2024/01/17 04:20:07;;;;;;;28.00;13.50;;;;;;;-5.04;88.58;99832.03;104672;1291;59415;-61
2024/01/17 04:22:53;;;;;;;24.00;12.20;;;;;;;-5.15;88.08;99832.83;105970;1290;73229;-62
2024/01/17 04:25:39;;;;;;;;;;;;;;;-5.26;87.65;99830.14;105965;1290;68444;-62
2024/01/17 04:28:25;;;;;;;22.40;10.40;;;;;;;-5.38;87.47;99828.58;105979;1290;71961;-62
2024/01/17 04:31:11;;;;;;;;;;;;;;;-5.55;86.90;99826.77;105248;1290;59528;-62
2024/01/17 04:33:59;;;;;;;21.60;10.90;;;;;;;-5.78;86.35;99829.32;104687;1294;61200;-62
2024/01/17 04:36:45;;;;;;;18.10;10.30;;;;;;;-6.00;86.46;99824.52;106010;1291;73899;-62
2024/01/17 04:39:31;;;;;;;20.90;11.80;;;;;;;-6.12;86.60;99823.91;104721;1294;69009;-61
2024/01/17 04:42:17;;;;;;;20.50;10.90;;;;;;;-6.21;86.80;99823.73;104540;1291;71233;-62
2024/01/17 04:45:04;;;;;;;18.30;10.70;;;;;;;-6.31;86.67;99818.51;104731;1293;61961;-61
2024/01/17 04:47:50;;;;;;;25.50;12.30;;;;;;;-6.43;86.66;99819.21;105681;1290;59229;-62
2024/01/17 04:50:37;;;;;;;20.50;10.70;;;;;;;-6.53;86.50;99813.47;104649;1290;73267;-60
2024/01/17 04:53:23;;;;;;;26.60;11.70;;;;;;;-6.69;86.21;99814.01;104723;1291;67915;-61
2024/01/17 04:56:12;;;;;;;22.60;11.90;;;;;;;-6.85;85.96;99809.85;104691;1296;71590;-61
2024/01/17 04:58:58;;;;;;;22.10;11.40;;;;;;;-7.01;85.95;99806.04;104676;1291;61136;-61
2024/01/17 05:01:44;;;;;;;25.10;11.90;;;;;;;-7.14;86.28;99800.96;104693;1290;61040;-61
2024/01/17 05:04:31;;;;;;;23.20;11.20;;;;;;;-7.13;87.14;99794.31;104775;1290;73332;-61
2024/01/17 05:07:17;;;;;;;24.50;11.40;;;;;;;-7.12;86.88;99791.67;104687;1294;71274;-61
2024/01/17 05:10:05;;;;;;;21.90;11.00;;;;;;;-7.16;86.71;99786.33;104677;1291;71215;-62
2024/01/17 05:12:51;;;;;;;20.50;11.40;;;;;;;-7.22;86.45;99781.04;105608;1291;60963;-62
2024/01/17 05:15:38;;;;;;;27.30;12.70;;;;;;;-7.25;86.59;99779.90;104649;1294;61307;-61
2024/01/17 05:18:24;;;;;;;30.30;15.40;;;;;;;-7.24;86.71;99779.93;104850;1291;74350;-61
2024/01/17 05:21:11;;;;;;;35.60;17.10;;;;;;;-7.20;86.76;99776.62;104723;1290;68259;-63
2024/01/17 05:23:57;;;;;;;36.10;16.40;;;;;;;-7.12;87.13;99773.73;104523;1288;71242;-61
2024/01/17 05:26:44;;;;;;;32.30;16.40;;;;;;;-7.05;87.88;99776.37;104761;1291;61434;-61
2024/01/17 05:29:34;;;;;;;36.10;16.30;;;;;;;-6.95;88.56;99778.64;104723;1291;63895;-61
2024/01/17 05:32:20;;;;;;;40.00;19.60;;;;;;;-6.89;88.66;99778.85;104517;1291;73880;-63
2024/01/17 05:35:07;;;;;;;38.90;19.50;;;;;;;-6.81;89.43;99782.54;104508;1291;67261;-63
2024/01/17 05:37:53;;;;;;;36.60;18.40;;;;;;;-6.76;89.04;99780.04;106023;1289;72143;-64
2024/01/17 05:40:39;;;;;;;39.80;19.00;;;;;;;-6.76;89.09;99776.05;105829;1292;59335;-62
2024/01/17 05:43:25;;;;;;;48.10;19.90;;;;;;;-6.75;87.92;99775.38;105795;1291;59106;-62
2024/01/17 05:46:11;;;;;;;37.90;18.20;;;;;;;-6.75;87.43;99769.85;105966;1294;73845;-63
2024/01/17 05:48:57;;;;;;;39.60;18.10;;;;;;;-6.73;87.45;99771.13;105863;1291;69189;-62
2024/01/17 05:51:43;;;;;;;35.70;15.80;;;;;;;-6.69;87.97;99771.27;105804;1290;72916;-62
2024/01/17 05:54:29;;;;;;;;;;;;;;;-6.65;88.08;99768.57;105835;1290;59990;-62
2024/01/17 05:57:15;;;;;;;37.60;16.40;;;;;;;-6.63;88.19;99763.27;105934;1290;60215;-62
2024/01/17 06:00:08;;;;;;;36.80;15.90;;;;;;;-6.61;87.96;99761.18;105987;1289;74337;-62
2024/01/17 06:02:54;;;;;;;36.10;16.00;;;;;;;-6.61;88.04;99767.55;105972;1289;68557;-62
2024/01/17 06:05:40;;;;;;;35.50;16.80;;;;;;;-6.65;87.89;99767.05;102194;1292;5003659;-62
2024/01/17 06:08:26;;;;;;;;;;;;;;;-6.67;87.72;99765.64;105967;1291;60900;-62
2024/01/17 06:11:12;;;;;;;36.70;16.20;;;;;;;-6.70;87.51;99763.54;105677;1293;72698;-62
2024/01/17 06:13:59;;;;;;;32.70;15.60;;;;;;;-6.72;87.19;99760.77;104689;1291;67171;-61
2024/01/17 06:16:47;;;;;;;38.00;17.20;;;;;;;-6.76;87.79;99761.80;104477;1290;71354;-61
2024/01/17 06:19:33;;;;;;;32.80;18.40;;;;;;;-6.76;87.82;99758.77;104641;1290;61184;-61
2024/01/17 06:22:20;;;;;;;40.60;17.70;;;;;;;-6.77;87.62;99758.90;104741;1291;61256;-60
2024/01/17 06:25:07;;;;;;;32.90;17.40;;;;;;;-6.82;87.47;99759.89;104531;1291;73270;-60
2024/01/17 06:27:53;;;;;;;33.20;17.30;;;;;;;-6.87;87.54;99762.54;105926;1290;68442;-61
2024/01/17 06:30:39;;;;;;;36.90;17.00;;;;;;;-6.92;87.47;99757.63;105939;1291;73450;-62
2024/01/17 06:33:25;;;;;;;33.50;15.20;;;;;;;-6.94;87.75;99757.58;105770;1290;209542;-62
2024/01/17 06:36:11;;;;;;;32.00;16.90;;;;;;;-6.93;88.56;99751.90;104902;1291;61159;-61
2024/01/17 06:38:58;;;;;;;34.50;18.00;;;;;;;-6.92;87.97;99747.11;104606;1291;72514;-60
2024/01/17 06:41:44;;;;;;;37.70;19.10;;;;;;;-6.90;87.98;99747.83;104704;1291;67116;-61
2024/01/17 06:44:30;;;;;;;34.10;17.90;;;;;;;-6.94;88.37;99745.65;104610;1291;72981;-61
2024/01/17 06:47:17;;;;;;;40.50;18.10;;;;;;;-7.00;88.15;99739.77;104716;1294;61250;-61
2024/01/17 06:50:04;;;;;;;40.90;18.80;;;;;;;-7.00;88.42;99735.39;104668;1291;61402;-60
2024/01/17 06:52:50;;;;;;;36.50;17.50;;;;;;;-6.97;88.37;99730.15;105696;1289;73334;-60
2024/01/17 06:55:36;;;;;;;37.20;19.60;;;;;;;-6.95;88.45;99721.66;104741;1295;71314;-61
2024/01/17 06:58:23;;;;;;;38.90;19.20;;;;;;;-6.96;87.76;99714.79;104663;1291;71188;-61
2024/01/17 07:01:09;;;;;;;37.80;17.80;;;;;;;-6.95;87.82;99710.11;104658;1290;62330;-61
2024/01/17 07:03:56;;;;;;;34.30;18.00;;;;;;;-6.95;88.06;99708.30;104687;1291;60132;-61
2024/01/17 07:06:42;;;;;;;36.60;18.50;;;;;;;-6.96;87.97;99704.21;104708;1294;73229;-60
2024/01/17 07:09:28;;;;;;;36.40;18.10;;;;;;;-6.96;87.97;99700.50;104743;1290;67260;-61
2024/01/17 07:12:14;;;;;;;40.70;20.40;;;;;;;-6.94;87.89;99691.72;104670;1291;72320;-60
2024/01/17 07:15:01;;;;;;;39.00;18.50;;;;;;;-6.89;88.11;99689.75;104560;1291;61058;-61
2024/01/17 07:17:47;;;;;;;35.40;19.00;;;;;;;-6.86;88.33;99686.34;104716;1294;61325;-61
2024/01/17 07:20:33;;;;;;;37.10;18.20;;;;;;;-6.85;88.07;99685.54;104700;1296;73350;-60
2024/01/17 07:23:20;;;;;;;40.70;18.60;;;;;;;-6.85;87.99;99682.20;104575;1290;67723;-61
2024/01/17 07:26:06;;;;;;;41.80;19.70;;;;;;;-6.87;87.95;99674.73;104685;1290;71157;-63
2024/01/17 07:28:53;;;;;;;43.90;19.90;;;;;;;-6.85;88.86;99674.64;104569;1290;61126;-64
2024/01/17 07:31:39;;;;;;;47.30;20.50;;;;;;;-6.78;89.16;99668.21;104663;1291;61139;-64
2024/01/17 07:34:25;;;;;;;41.30;21.70;;;;;;;-6.71;89.28;99664.27;104716;1290;73302;-61
2024/01/17 07:37:11;;;;;;;33.20;19.50;;;;;;;-6.59;89.02;99655.17;104674;1292;67898;-61
2024/01/17 07:39:59;;;;;;;44.50;20.70;;;;;;;-6.51;89.13;99653.12;104684;1289;71916;-61
2024/01/17 07:42:45;;;;;;;41.30;21.70;;;;;;;-6.45;88.94;99646.64;104685;1291;61166;-62
2024/01/17 07:45:31;;;;;;;40.20;20.70;;;;;;;-6.34;88.74;99638.14;104678;1291;61684;-60
2024/01/17 07:48:18;;;;;;;35.40;20.10;;;;;;;-6.19;88.57;99635.95;104742;1291;73367;-61
2024/01/17 07:51:05;;;;;;;39.60;21.00;;;;;;;-5.99;88.56;99633.98;104641;1291;67946;-61
2024/01/17 07:53:53;;;;;;;38.50;20.70;;;;;;;-5.97;88.41;99628.65;104322;1290;71206;-61
2024/01/17 07:56:39;;;;;;;38.50;20.90;;;;;;;-6.00;88.28;99628.91;104758;1290;61151;-60
2024/01/17 07:59:27;;;;;;;42.30;19.60;;;;;;;-6.00;88.07;99629.90;104734;1291;61199;-61
2024/01/17 08:02:14;;;;;;;45.40;21.70;;;;;;;-5.94;88.08;99622.39;104697;1291;76015;-61
2024/01/17 08:05:00;;;;;;;37.30;19.60;;;;;;;-5.78;88.05;99615.67;104688;1291;67844;-61
2024/01/17 08:07:47;;;;;;;36.30;19.00;;;;;;;-5.51;87.97;99604.45;104616;1290;72623;-61
2024/01/17 08:10:33;;;;;;;36.50;19.50;;;;;;;-5.31;87.69;99598.00;104656;1291;61172;-61
2024/01/17 08:13:19;;;;;;;39.00;21.00;;;;;;;-5.21;87.59;99597.81;104644;1291;61050;-61
2024/01/17 08:16:05;;;;;;;38.90;19.90;;;;;;;-5.23;87.65;99588.52;104618;1290;76678;-62
2024/01/17 08:18:52;;;;;;;37.10;19.10;;;;;;;-5.33;87.47;99586.02;104653;1291;69996;-61
2024/01/17 08:21:46;;;;;;;37.10;19.10;;;;;;;-5.42;87.65;99580.04;52407;1294;10002824;-62
2024/01/17 08:24:52;;;;;;;40.10;20.10;;;;;;;-5.40;87.93;99577.25;105945;1291;83085;-62
2024/01/17 08:27:38;;;;;;;38.20;18.60;;;;;;;-5.33;87.97;99572.25;105988;1290;67408;-62
2024/01/17 08:30:26;;;;;;;39.70;20.30;;;;;;;-5.27;87.86;99570.58;105973;1290;72192;-62
2024/01/17 08:33:14;;;;;;;31.90;17.90;;;;;;;-5.23;87.75;99562.16;105869;1290;60685;-62
2024/01/17 08:36:00;;;;;;;35.70;18.90;;;;;;;-5.19;87.81;99555.18;105997;1291;59436;-63
2024/01/17 08:38:46;;;;;;;;;;;;;;;-5.12;87.57;99546.14;105843;1290;75525;-62
2024/01/17 08:41:33;;;;;;;38.50;19.60;;;;;;;-5.03;87.37;99537.85;106007;1290;67259;-62
2024/01/17 08:44:19;;;;;;;34.70;19.40;;;;;;;-4.90;87.44;99534.20;105532;1291;71399;-62
2024/01/17 08:47:07;;;;;;;33.50;19.30;;;;;;;-4.80;86.90;99532.63;105201;1291;61321;-61
2024/01/17 08:49:56;;;;;;;32.60;18.90;;;;;;;-4.64;87.24;99529.02;104711;1289;59282;-61
2024/01/17 08:52:43;;;;;;;37.30;18.30;;;;;;;-4.46;87.28;99517.70;104646;1290;74210;-62
2024/01/17 08:55:29;;;;;;;40.60;19.90;;;;;;;-4.31;87.28;99516.08;104639;1290;67605;-61
2024/01/17 08:58:15;;;;;;;35.40;18.40;;;;;;;-4.13;87.37;99511.66;104631;1291;70261;-61
2024/01/17 09:01:02;;;;;;;39.10;19.20;;;;;;;-3.98;87.02;99506.80;104646;1291;61163;-61
2024/01/17 09:03:48;;;;;;;42.40;20.00;;;;;;;-3.85;85.94;99505.92;104697;1291;61159;-62
2024/01/17 09:06:34;;;;;;;42.00;21.60;;;;;;;-3.71;86.48;99501.54;104456;1291;76093;-61
2024/01/17 09:09:22;;;;;;;;;;;;;;;-3.51;86.47;99499.77;104728;1290;67215;-62
2024/01/17 09:12:08;;;;;;;41.90;20.20;;;;;;;-3.39;85.05;99498.71;89941;1294;10008876;-62
2024/01/17 09:14:54;;;;;;;35.50;18.70;;;;;;;-3.35;85.14;99488.67;104649;1291;73120;-62
2024/01/17 09:17:41;;;;;;;;;;;;;;;-3.27;85.64;99479.90;104784;1291;68249;-61
2024/01/17 09:20:27;;;;;;;35.40;19.60;;;;;;;-3.32;85.17;99475.08;104676;1291;72245;-62
2024/01/17 09:23:14;;;;;;;37.00;18.90;;;;;;;-3.25;85.57;99469.84;104639;1291;61705;-62
2024/01/17 09:26:00;;;;;;;38.70;20.00;;;;;;;-3.06;84.81;99464.65;100980;1294;5002405;-62
2024/01/17 09:28:46;;;;;;;36.10;18.70;;;;;;;-2.84;85.95;99462.03;104541;1291;73329;-62
2024/01/17 09:31:32;;;;;;;;;;;;;;;-2.70;85.63;99459.11;104693;1291;71107;-62
2024/01/17 09:34:19;;;;;;;34.60;18.90;;;;;;;-2.46;85.17;99448.38;104644;1291;72057;-62
2024/01/17 09:37:05;;;;;;;;;;;;;;;-2.31;85.32;99437.32;104738;1291;61076;-62
2024/01/17 09:39:52;;;;;;;35.70;19.70;;;;;;;-2.20;85.98;99431.25;104720;1294;61542;-63
2024/01/17 09:42:39;;;;;;;35.00;19.70;;;;;;;-2.16;85.95;99429.64;104727;1289;73232;-62
2024/01/17 09:45:30;;;;;;;39.00;20.30;;;;;;;-2.19;86.30;99424.19;104710;1290;68433;-62
2024/01/17 09:48:18;;;;;;;41.90;21.40;;;;;;;-2.18;86.55;99420.49;104633;1291;71255;-67
2024/01/17 09:51:04;;;;;;;51.40;23.30;;;;;;;-2.20;86.74;99409.98;104670;1291;61213;-63
2024/01/17 09:53:53;;;;;;;38.80;22.00;;;;;;;-2.23;86.50;99405.39;105832;1289;59744;-62
2024/01/17 09:56:42;;;;;;;46.50;23.30;;;;;;;-2.27;84.14;99402.11;104536;1296;73360;-62
2024/01/17 09:59:33;;;;;;;39.20;21.60;;;;;;;-2.04;86.35;99399.07;104714;1291;68224;-62
2024/01/17 10:02:20;;;;;;;44.00;22.40;;;;;;;-1.90;86.25;99392.69;104697;1293;71536;-62
2024/01/17 10:05:11;;;;;;;36.20;22.40;;;;;;;-1.72;86.26;99389.56;104731;1291;61224;-63
2024/01/17 10:08:01;;;;;;;42.30;22.90;;;;;;;-1.66;84.82;99383.91;104569;1291;61365;-62
2024/01/17 10:10:47;;;;;;;47.10;24.10;;;;;;;-1.69;84.66;99381.15;104630;1291;76380;-62
2024/01/17 10:13:33;;;;;;;;;;;;;;;-1.56;84.65;99381.98;104740;1290;67176;-63
2024/01/17 10:16:20;;;;;;;48.00;23.20;;;;;;;-1.30;85.14;99372.32;104677;1291;73988;-62
2024/01/17 10:19:06;;;;;;;;;;;;;;;-1.11;84.70;99364.92;104699;1291;61197;-62
2024/01/17 10:21:52;;;;;;;41.80;23.80;;;;;;;-0.90;83.52;99360.71;105223;1293;60403;-63
2024/01/17 10:24:39;;;;;;;43.30;23.70;;;;;;;-0.57;84.73;99348.16;104624;1290;77262;-62
2024/01/17 10:27:27;;;;;;;43.10;23.20;;;;;;;-0.35;83.67;99343.73;104710;1291;69238;-62
2024/01/17 10:30:14;;;;;;;41.00;23.20;;;;;;;-0.18;84.82;99337.94;104672;1290;71186;-62
2024/01/17 10:33:02;;;;;;;47.50;24.80;;;;;;;-0.03;83.74;99329.21;104687;1294;61235;-62
2024/01/17 10:35:49;;;;;;;54.10;27.20;;;;;;;0.21;83.17;99325.59;104739;1291;61167;-63
2024/01/17 10:38:35;;;;;;;45.50;24.50;;;;;;;0.63;84.83;99314.71;105945;1290;74714;-63
2024/01/17 10:41:21;;;;;;;39.90;23.10;;;;;;;1.18;84.46;99304.63;105955;1293;66443;-63
2024/01/17 10:44:08;;;;;;;47.30;22.00;;;;;;;1.44;81.77;99293.59;105933;1290;71217;-64
2024/01/17 10:46:54;;;;;;;;;;;;;;;1.82;83.49;99287.23;105935;1290;59316;-63
2024/01/17 10:49:40;;;;;;;33.90;22.30;;;;;;;2.00;83.17;99273.08;105926;1291;59317;-64
2024/01/17 10:52:32;;;;;;;38.80;21.60;;;;;;;2.26;82.13;99263.10;105922;1290;73163;-63
2024/01/17 10:55:19;;;;;;;39.10;21.90;;;;;;;2.34;81.80;99253.04;105879;1292;67786;-63
2024/01/17 10:58:11;;;;;;;44.70;21.10;;;;;;;2.51;81.06;99245.30;105885;1292;72272;-63
2024/01/17 11:01:03;;;;;;;37.50;23.70;;;;;;;2.59;82.11;99235.20;90856;1296;10001829;-63
2024/01/17 11:03:53;;;;;;;46.00;23.90;;;;;;;2.63;80.39;99225.29;105905;1291;71381;-62
2024/01/17 11:06:41;;;;;;;40.50;21.80;;;;;;;2.35;77.59;99215.95;105973;1290;59153;-63
2024/01/17 11:09:29;;;;;;;38.60;23.30;;;;;;;1.99;78.18;99210.71;105939;1292;59727;-63
2024/01/17 11:12:16;;;;;;;37.60;22.90;;;;;;;1.71;77.96;99202.32;105939;1293;74953;-63
2024/01/17 11:15:03;;;;;;;43.00;22.80;;;;;;;1.63;79.84;99200.64;105953;1290;67609;-63
2024/01/17 11:17:53;;;;;;;44.10;22.40;;;;;;;1.41;78.13;99191.38;105725;1293;70388;-63
2024/01/17 11:20:41;;;;;;;42.70;23.10;;;;;;;1.14;76.72;99192.77;105849;1291;59244;-63
2024/01/17 11:23:40;;;;;;;45.00;24.20;;;;;;;1.05;79.59;99191.44;105779;1292;59254;-62
2024/01/17 11:26:57;;;;;;;46.20;25.30;;;;;;;1.07;78.74;99187.70;105899;1292;73516;-63
2024/01/17 11:29:53;;;;;;;44.50;21.60;;;;;;;0.81;77.17;99179.58;105921;1291;67459;-63
2024/01/17 11:32:57;;;;;;;40.90;22.70;;;;;;;0.45;77.17;99170.59;105897;1290;71415;-63
2024/01/17 11:35:48;;;;;;;41.10;22.90;;;;;;;0.24;76.48;99163.61;105854;1294;59291;-64
2024/01/17 11:38:34;;;;;;;42.10;22.40;;;;;;;0.16;79.21;99151.89;105966;1290;59385;-63
2024/01/17 11:41:22;;;;;;;39.60;21.70;;;;;;;0.20;78.46;99144.79;106042;1290;73296;-63
2024/01/17 11:44:18;;;;;;;39.60;21.80;;;;;;;0.12;78.65;99138.50;38459;1296;10204938;-63
2024/01/17 11:47:06;;;;;;;41.10;21.90;;;;;;;0.23;78.82;99130.73;105812;1291;70218;-63
2024/01/17 11:50:00;;;;;;;40.60;21.00;;;;;;;0.29;78.62;99115.48;105966;1290;70834;-63
2024/01/17 11:52:46;;;;;;;36.40;20.10;;;;;;;0.46;79.46;99105.83;105826;1291;59312;-63
2024/01/17 11:55:32;;;;;;;;;;;;;;;0.53;77.50;99101.08;105997;1290;59070;-64
2024/01/17 11:58:21;;;;;;;;;;;;;;;0.61;78.07;99096.98;105900;1290;73570;-64
2024/01/17 12:01:13;;;;;;;39.00;21.30;;;;;;;0.92;78.07;99092.05;105943;1291;69131;-64
2024/01/17 12:03:59;;;;;;;42.00;20.20;;;;;;;1.12;77.65;99088.24;98599;1293;10002014;-62
2024/01/17 12:06:52;;;;;;;38.60;21.30;;;;;;;1.12;77.77;99078.56;106023;1291;60135;-61
2024/01/17 12:09:38;;;;;;;35.10;20.00;;;;;;;1.25;78.54;99067.84;105994;1290;74186;-61
2024/01/17 12:12:24;;;;;;;37.90;19.80;;;;;;;1.23;76.72;99059.88;105992;1290;68103;-61
2024/01/17 12:15:10;;;;;;;37.80;19.60;;;;;;;1.34;77.85;99052.53;105969;1291;71494;-61
2024/01/17 12:17:57;;;;;;;36.50;21.50;;;;;;;1.44;76.78;99048.41;105970;1290;59467;-61
2024/01/17 12:20:43;;;;;;;39.10;20.70;;;;;;;1.56;78.31;99040.70;105951;1295;58997;-61
2024/01/17 12:23:35;;;;;;;38.40;20.70;;;;;;;1.56;75.43;99029.33;106021;1290;72958;-63
2024/01/17 12:26:21;;;;;;;37.80;20.40;;;;;;;1.42;75.58;99018.89;106018;1290;67227;-63
2024/01/17 12:29:09;;;;;;;37.50;20.00;;;;;;;1.32;74.58;99018.59;105949;1291;71189;-63
2024/01/17 12:31:55;;;;;;;38.70;20.30;;;;;;;1.13;74.99;99020.36;105952;1291;58988;-63
2024/01/17 12:34:41;;;;;;;38.90;20.40;;;;;;;1.03;76.69;99020.75;105895;1295;59670;-63
2024/01/17 12:37:28;;;;;;;39.10;21.90;;;;;;;0.83;75.44;99010.30;105956;1290;73260;-63
2024/01/17 12:40:14;;;;;;;;;;;;;;;0.78;75.13;99006.75;106013;1291;67421;-63
2024/01/17 12:43:01;;;;;;;41.70;21.40;;;;;;;0.83;75.81;99001.15;106002;1291;72636;-63
2024/01/17 12:45:47;;;;;;;47.30;21.90;;;;;;;0.96;74.98;98991.27;106002;1293;58967;-63
2024/01/17 12:48:35;;;;;;;39.90;21.20;;;;;;;1.14;76.23;98987.09;105990;1291;59992;-64